Time;durP1;ratioP1;P1;durP2;ratioP2;P2;SDS_P1;SDS_P2;PMS_P1;PMS_P2;Temp;Humidity;BMP_temperature;BMP_pressure;BME280_temperature;BME280_humidity;BME280_pressure;Samples;Min_cycle;Max_cycle;Signal;HPM_P1;HPM_P2
2023/05/30 00:02:15;;;;;;;15.70;7.53;;;18.90;99.90;;;;;;7377135;19;19946;-71
2023/05/30 00:04:41;;;;;;;16.83;7.75;;;18.90;99.90;;;;;;7400069;19;19974;-71
2023/05/30 00:07:07;;;;;;;15.43;7.45;;;18.80;99.90;;;;;;7400631;19;19926;-71
2023/05/30 00:09:33;;;;;;;16.48;7.63;;;18.90;99.90;;;;;;7401848;19;19939;-71
2023/05/30 00:12:00;;;;;;;22.00;8.43;;;18.80;99.90;;;;;;7402035;19;19915;-71
2023/05/30 00:14:26;;;;;;;19.08;7.63;;;18.80;99.90;;;;;;7400460;19;20556;-70
2023/05/30 00:16:52;;;;;;;21.15;8.95;;;18.80;99.90;;;;;;7400354;19;19935;-72
2023/05/30 00:19:22;;;;;;;17.85;8.80;;;18.80;99.90;;;;;;7399429;19;19974;-71
2023/05/30 00:21:49;;;;;;;24.25;8.80;;;18.80;99.90;;;;;;7401390;19;19932;-70
2023/05/30 00:24:15;;;;;;;22.60;7.47;;;18.70;99.90;;;;;;7398397;19;20316;-70
2023/05/30 00:26:41;;;;;;;18.00;8.48;;;18.60;99.90;;;;;;7400678;19;19919;-71
2023/05/30 00:29:07;;;;;;;20.33;8.65;;;18.60;99.90;;;;;;7400109;19;19914;-71
2023/05/30 00:31:32;;;;;;;20.45;7.93;;;18.60;99.90;;;;;;7401360;19;19915;-73
2023/05/30 00:33:58;;;;;;;22.92;8.43;;;18.60;99.90;;;;;;7399382;19;19926;-71
2023/05/30 00:36:24;;;;;;;18.70;7.95;;;18.50;99.90;;;;;;7400352;19;20006;-71
2023/05/30 00:38:49;;;;;;;20.00;8.45;;;18.60;99.90;;;;;;7401227;19;19922;-71
2023/05/30 00:41:16;;;;;;;19.17;8.27;;;18.50;99.90;;;;;;7399573;19;19922;-72
2023/05/30 00:43:42;;;;;;;17.23;8.18;;;18.60;99.90;;;;;;7399146;19;19935;-71
2023/05/30 00:46:10;;;;;;;15.05;8.07;;;18.60;99.90;;;;;;7397259;19;19919;-71
2023/05/30 00:48:37;;;;;;;17.05;8.02;;;18.60;99.90;;;;;;7400421;19;19919;-72
2023/05/30 00:51:06;;;;;;;18.73;8.50;;;18.60;99.90;;;;;;7399107;19;20632;-72
2023/05/30 00:53:32;;;;;;;21.05;8.18;;;18.60;99.90;;;;;;7397001;19;19922;-71
2023/05/30 00:55:58;;;;;;;19.15;7.25;;;18.60;99.90;;;;;;7400025;19;19934;-71
2023/05/30 00:58:24;;;;;;;19.02;7.93;;;18.60;99.90;;;;;;7396947;19;20666;-71
2023/05/30 01:00:51;;;;;;;20.80;7.72;;;18.70;99.90;;;;;;7399084;19;19919;-71
2023/05/30 01:03:18;;;;;;;17.63;7.50;;;18.60;99.90;;;;;;7397503;19;19925;-70
2023/05/30 01:05:44;;;;;;;16.98;8.15;;;18.60;99.90;;;;;;7400075;19;19926;-71
2023/05/30 01:08:10;;;;;;;18.60;7.20;;;18.60;99.90;;;;;;7397254;19;19922;-71
2023/05/30 01:10:37;;;;;;;15.07;7.15;;;18.60;99.90;;;;;;7399638;19;19914;-71
2023/05/30 01:13:32;;;;;;;13.93;6.07;;;18.60;99.90;;;;;;7365461;19;20275;-71
2023/05/30 01:16:09;;;;;;;10.65;4.47;;;18.60;99.90;;;;;;7400527;19;20380;-71
2023/05/30 01:18:50;;;;;;;13.90;4.30;;;18.50;99.90;;;;;;7397606;19;19974;-71
2023/05/30 01:21:17;;;;;;;12.57;4.00;;;18.50;98.20;;;;;;7396558;19;19923;-71
2023/05/30 01:24:08;;;;;;;15.65;4.50;;;18.50;97.50;;;;;;7399315;19;19914;-71
2023/05/30 01:26:52;;;;;;;10.85;3.53;;;18.40;96.60;;;;;;7395925;19;19918;-71
2023/05/30 01:29:23;;;;;;;12.48;4.00;;;18.50;96.10;;;;;;7396806;19;19970;-71
2023/05/30 01:31:49;;;;;;;10.60;3.28;;;18.50;95.70;;;;;;7395666;19;19926;-72
2023/05/30 01:34:15;;;;;;;13.60;4.05;;;18.50;95.00;;;;;;7395065;19;19923;-71
2023/05/30 01:36:41;;;;;;;11.00;3.83;;;18.50;94.30;;;;;;7396313;19;19915;-70
2023/05/30 01:39:07;;;;;;;11.95;4.97;;;18.40;94.30;;;;;;7395064;19;19911;-71
2023/05/30 01:41:55;;;;;;;11.50;3.50;;;18.40;94.40;;;;;;7397916;19;20461;-71
2023/05/30 01:44:50;;;;;;;10.82;4.05;;;18.40;94.80;;;;;;7398166;19;19919;-70
2023/05/30 01:47:31;;;;;;;10.80;3.67;;;18.40;94.90;;;;;;7397138;19;19934;-71
2023/05/30 01:50:23;;;;;;;12.15;3.83;;;18.40;94.80;;;;;;7397058;19;19943;-71
2023/05/30 01:52:59;;;;;;;12.88;4.20;;;18.50;94.70;;;;;;7394179;19;20203;-70
2023/05/30 01:55:26;;;;;;;13.82;4.00;;;18.50;94.50;;;;;;7395900;19;19928;-71
2023/05/30 01:57:55;;;;;;;12.35;3.58;;;18.50;94.30;;;;;;7396006;19;19943;-71
2023/05/30 02:00:21;;;;;;;14.00;4.10;;;18.50;94.10;;;;;;7396829;19;19934;-71
2023/05/30 02:02:47;;;;;;;;;;;18.50;94.10;;;;;;7400885;19;19922;-71
2023/05/30 02:05:13;;;;;;;11.55;3.47;;;18.50;94.30;;;;;;7396008;19;19926;-71
2023/05/30 02:07:39;;;;;;;12.00;3.60;;;18.40;94.50;;;;;;7398717;19;19914;-71
2023/05/30 02:10:05;;;;;;;12.23;3.95;;;18.40;94.80;;;;;;7399078;19;20006;-70
2023/05/30 02:12:31;;;;;;;13.73;4.18;;;18.50;95.00;;;;;;7403719;19;19926;-71
2023/05/30 02:14:57;;;;;;;11.55;4.25;;;18.50;94.80;;;;;;7403518;19;19932;-71
2023/05/30 02:17:23;;;;;;;19.63;3.75;;;18.50;94.20;;;;;;7404192;19;20341;-71
2023/05/30 02:19:50;;;;;;;15.57;3.90;;;18.40;93.40;;;;;;7403258;19;19978;-71
2023/05/30 02:22:17;;;;;;;12.70;3.47;;;18.30;93.40;;;;;;7400975;19;19964;-71
2023/05/30 02:24:43;;;;;;;12.35;3.13;;;18.40;93.30;;;;;;7400262;19;19977;-72
2023/05/30 02:27:09;;;;;;;13.43;4.22;;;18.40;92.80;;;;;;7401562;19;19919;-71
2023/05/30 02:29:35;;;;;;;12.35;3.33;;;18.40;92.70;;;;;;7401172;19;19914;-71
2023/05/30 02:32:01;;;;;;;11.68;3.28;;;18.40;92.80;;;;;;7402757;19;19970;-72
2023/05/30 02:34:27;;;;;;;15.52;3.83;;;18.50;92.70;;;;;;7398628;19;19914;-72
2023/05/30 02:36:53;;;;;;;12.27;3.70;;;18.50;92.60;;;;;;7404269;19;19915;-71
2023/05/30 02:39:18;;;;;;;16.13;3.90;;;18.50;92.50;;;;;;7399342;19;19926;-72
2023/05/30 02:41:44;;;;;;;12.65;4.22;;;18.50;92.40;;;;;;7403657;19;19925;-71
2023/05/30 02:44:10;;;;;;;12.90;4.03;;;18.60;92.40;;;;;;7399721;19;19947;-72
2023/05/30 02:46:36;;;;;;;13.88;4.20;;;18.60;92.20;;;;;;7403307;19;19919;-72
2023/05/30 02:49:02;;;;;;;11.82;3.85;;;18.60;92.10;;;;;;7402568;19;19910;-72
2023/05/30 02:51:28;;;;;;;11.15;3.50;;;18.60;91.90;;;;;;7401732;19;19923;-72
2023/05/30 02:53:53;;;;;;;13.07;4.03;;;18.70;92.30;;;;;;7399018;19;19938;-71
2023/05/30 02:56:24;;;;;;;14.68;3.88;;;18.80;92.50;;;;;;7401533;19;19922;-71
2023/05/30 02:58:50;;;;;;;12.52;3.65;;;18.80;92.90;;;;;;7369668;19;20335;-71
2023/05/30 03:01:16;;;;;;;9.65;4.18;;;18.80;93.00;;;;;;7399279;19;19930;-71
2023/05/30 03:03:42;;;;;;;10.75;3.83;;;18.80;93.10;;;;;;7400336;19;19918;-71
2023/05/30 03:06:08;;;;;;;12.10;4.38;;;18.70;92.90;;;;;;7400262;19;20382;-72
2023/05/30 03:08:36;;;;;;;12.88;3.67;;;18.80;92.70;;;;;;7402770;19;20343;-71
2023/05/30 03:11:03;;;;;;;14.45;3.97;;;18.80;91.90;;;;;;7402597;19;19930;-71
2023/05/30 03:13:28;;;;;;;10.38;3.67;;;18.70;91.10;;;;;;7399328;19;19926;-71
2023/05/30 03:15:54;;;;;;;13.02;3.80;;;18.70;90.90;;;;;;7399746;19;19933;-72
2023/05/30 03:18:20;;;;;;;10.57;3.72;;;18.70;90.80;;;;;;7398082;19;19987;-70
2023/05/30 03:20:46;;;;;;;11.57;4.07;;;18.70;90.80;;;;;;7399631;19;20376;-71
2023/05/30 03:23:11;;;;;;;12.95;3.55;;;18.70;90.90;;;;;;7399219;19;19918;-71
2023/05/30 03:25:37;;;;;;;12.00;3.70;;;18.70;91.10;;;;;;7400663;19;20457;-72
2023/05/30 03:28:06;;;;;;;12.20;3.58;;;18.70;90.80;;;;;;7398626;19;19919;-71
2023/05/30 03:30:32;;;;;;;14.48;3.85;;;18.60;90.90;;;;;;7400907;19;20010;-71
2023/05/30 03:32:58;;;;;;;;;;;18.70;90.90;;;;;;7405223;19;19970;-72
2023/05/30 03:35:24;;;;;;;14.45;4.18;;;18.70;90.30;;;;;;7401426;19;20540;-71
2023/05/30 03:37:50;;;;;;;13.40;4.22;;;18.70;90.20;;;;;;7402581;19;19919;-72
2023/05/30 03:40:16;;;;;;;9.70;3.33;;;18.70;90.20;;;;;;7396466;19;19918;-71
2023/05/30 03:42:42;;;;;;;12.30;4.00;;;18.60;90.30;;;;;;7401169;19;19918;-71
2023/05/30 03:45:08;;;;;;;12.35;4.63;;;18.60;90.50;;;;;;7399507;19;19927;-71
2023/05/30 03:47:34;;;;;;;11.35;3.97;;;18.60;90.80;;;;;;7402734;19;19929;-71
2023/05/30 03:50:00;;;;;;;10.73;4.85;;;18.70;90.90;;;;;;7399853;19;19914;-72
2023/05/30 03:52:26;;;;;;;14.77;5.20;;;18.70;91.00;;;;;;7397374;19;19910;-70
2023/05/30 03:54:51;;;;;;;16.05;5.80;;;18.60;91.20;;;;;;7398286;19;20250;-72
2023/05/30 03:57:17;;;;;;;19.90;5.53;;;18.60;91.50;;;;;;7398919;19;19919;-71
2023/05/30 03:59:45;;;;;;;13.02;4.22;;;18.60;91.50;;;;;;7400362;19;19938;-71
2023/05/30 04:02:11;;;;;;;12.55;4.05;;;18.70;90.70;;;;;;7398721;19;19938;-71
2023/05/30 04:04:36;;;;;;;11.15;3.90;;;18.60;89.60;;;;;;7398760;19;19922;-72
2023/05/30 04:07:02;;;;;;;17.38;4.38;;;18.60;89.70;;;;;;7399017;19;19918;-72
2023/05/30 04:09:28;;;;;;;10.95;3.83;;;18.60;90.00;;;;;;7398841;19;20684;-72
2023/05/30 04:11:54;;;;;;;16.98;4.32;;;18.60;90.10;;;;;;7401727;19;20019;-72
2023/05/30 04:14:19;;;;;;;13.43;3.83;;;18.60;90.10;;;;;;7398401;19;20031;-70
2023/05/30 04:16:45;;;;;;;13.98;4.80;;;18.60;90.10;;;;;;7400889;19;19918;-73
2023/05/30 04:19:11;;;;;;;17.30;6.72;;;18.70;90.20;;;;;;7397613;19;20660;-71
2023/05/30 04:21:36;;;;;;;19.75;6.68;;;18.70;90.40;;;;;;7398565;19;19938;-72
2023/05/30 04:24:03;;;;;;;19.75;7.20;;;18.80;90.50;;;;;;7397339;19;19942;-71
2023/05/30 04:26:31;;;;;;;19.42;6.60;;;18.80;90.60;;;;;;7400375;19;19918;-72
2023/05/30 04:28:57;;;;;;;16.63;6.78;;;18.80;90.70;;;;;;7398112;19;20256;-72
2023/05/30 04:31:26;;;;;;;19.27;8.60;;;18.80;90.80;;;;;;7395151;19;19951;-72
2023/05/30 04:33:55;;;;;;;22.80;8.90;;;18.80;91.00;;;;;;7368057;19;19910;-72
2023/05/30 04:36:21;;;;;;;22.85;8.43;;;18.80;91.40;;;;;;7397527;19;19918;-72
2023/05/30 04:38:49;;;;;;;25.15;9.02;;;18.90;91.80;;;;;;7399847;19;19921;-72
2023/05/30 04:41:20;;;;;;;19.88;7.45;;;18.90;91.60;;;;;;7396959;19;19981;-72
2023/05/30 04:43:54;;;;;;;17.90;7.60;;;18.90;91.70;;;;;;7396265;19;20335;-72
2023/05/30 04:46:23;;;;;;;18.20;7.07;;;18.90;91.40;;;;;;7397146;19;19981;-72
2023/05/30 04:48:52;;;;;;;16.15;6.25;;;18.80;91.20;;;;;;7398565;19;19926;-72
2023/05/30 04:51:22;;;;;;;17.60;6.60;;;18.90;90.90;;;;;;7396986;19;19918;-72
2023/05/30 04:53:48;;;;;;;16.38;7.93;;;18.90;90.60;;;;;;7399519;19;20774;-73
2023/05/30 04:56:15;;;;;;;18.27;5.90;;;18.90;90.40;;;;;;7397375;19;20259;-72
2023/05/30 04:58:41;;;;;;;14.45;5.15;;;19.00;90.40;;;;;;7367527;19;20268;-71
2023/05/30 05:01:09;;;;;;;12.98;5.47;;;19.00;88.30;;;;;;7396638;19;19990;-72
2023/05/30 05:03:37;;;;;;;13.77;4.78;;;19.10;87.00;;;;;;7399661;19;19906;-72
2023/05/30 05:06:04;;;;;;;14.77;5.20;;;19.20;86.40;;;;;;7396942;19;19922;-71
2023/05/30 05:08:30;;;;;;;17.95;4.50;;;19.30;86.20;;;;;;7398003;19;19995;-71
2023/05/30 05:10:55;;;;;;;13.35;5.60;;;19.30;85.40;;;;;;7394229;19;19931;-72
2023/05/30 05:13:21;;;;;;;20.00;6.55;;;19.30;85.10;;;;;;7397023;19;19921;-72
2023/05/30 05:15:47;;;;;;;15.55;5.32;;;19.40;85.20;;;;;;7396135;19;19918;-72
2023/05/30 05:18:13;;;;;;;15.40;5.32;;;19.40;85.00;;;;;;7397700;19;19923;-71
2023/05/30 05:20:38;;;;;;;17.42;5.18;;;19.40;84.90;;;;;;7398003;19;19922;-71
2023/05/30 05:23:04;;;;;;;15.43;6.00;;;19.40;84.90;;;;;;7394620;19;19929;-71
2023/05/30 05:25:30;;;;;;;15.18;5.25;;;19.50;84.80;;;;;;7396003;19;20265;-72
2023/05/30 05:27:55;;;;;;;20.77;5.93;;;19.50;84.60;;;;;;7398716;19;19926;-72
2023/05/30 05:30:21;;;;;;;16.10;5.53;;;19.50;84.40;;;;;;7394787;19;19911;-72
2023/05/30 05:32:47;;;;;;;15.55;5.00;;;19.50;84.00;;;;;;7366469;19;20274;-72
2023/05/30 05:35:13;;;;;;;16.05;5.07;;;19.50;83.60;;;;;;7395802;19;19922;-72
2023/05/30 05:37:39;;;;;;;15.43;5.18;;;19.50;82.90;;;;;;7397705;19;19915;-72
2023/05/30 05:40:05;;;;;;;18.38;4.90;;;19.50;82.60;;;;;;7393229;19;19918;-72
2023/05/30 05:42:33;;;;;;;16.40;5.55;;;19.60;82.20;;;;;;7403795;19;19932;-73
2023/05/30 05:44:59;;;;;;;14.27;4.65;;;19.70;81.80;;;;;;7402080;19;20506;-72
2023/05/30 05:47:25;;;;;;;12.35;4.03;;;19.70;81.60;;;;;;7401425;19;19927;-72
2023/05/30 05:49:51;;;;;;;13.65;4.90;;;19.80;80.20;;;;;;7402509;19;20011;-73
2023/05/30 05:52:17;;;;;;;11.75;5.00;;;19.90;79.70;;;;;;7402462;19;19918;-71
2023/05/30 05:54:43;;;;;;;15.38;5.28;;;20.00;79.20;;;;;;7401982;19;19914;-72
2023/05/30 05:57:09;;;;;;;15.82;6.55;;;20.00;78.80;;;;;;7403684;19;19927;-73
2023/05/30 05:59:35;;;;;;;17.45;5.05;;;20.10;78.60;;;;;;7371997;19;20006;-73
2023/05/30 06:02:01;;;;;;;12.48;4.63;;;20.20;77.50;;;;;;7404331;19;19922;-73
2023/05/30 06:04:26;;;;;;;14.52;5.45;;;20.30;76.50;;;;;;7400476;19;19918;-72
2023/05/30 06:06:52;;;;;;;14.07;5.25;;;20.40;76.50;;;;;;7402860;19;19921;-71
2023/05/30 06:09:18;;;;;;;11.50;5.47;;;20.60;76.40;;;;;;7403692;19;20284;-72
2023/05/30 06:11:44;;;;;;;18.88;6.03;;;20.70;76.20;;;;;;7405127;19;20849;-71
2023/05/30 06:14:10;;;;;;;9.63;4.90;;;20.70;76.10;;;;;;7399195;19;20251;-71
2023/05/30 06:16:35;;;;;;;14.45;5.70;;;20.80;75.50;;;;;;7402514;19;19915;-73
2023/05/30 06:19:01;;;;;;;12.32;4.95;;;20.90;74.90;;;;;;7402653;19;19918;-72
2023/05/30 06:21:27;;;;;;;13.73;5.20;;;21.00;74.60;;;;;;7402970;19;19920;-72
2023/05/30 06:23:52;;;;;;;12.98;5.65;;;21.10;74.10;;;;;;7401886;19;19933;-72
2023/05/30 06:26:18;;;;;;;14.05;5.63;;;21.10;73.00;;;;;;7402534;19;19931;-72
2023/05/30 06:28:49;;;;;;;16.58;6.22;;;21.10;72.90;;;;;;7400773;19;20335;-72
2023/05/30 06:31:15;;;;;;;15.05;5.47;;;21.20;72.60;;;;;;7400856;19;19938;-72
2023/05/30 06:33:41;;;;;;;16.60;5.70;;;21.20;72.20;;;;;;7401176;19;19919;-73
2023/05/30 06:36:07;;;;;;;15.05;5.28;;;21.10;72.00;;;;;;7400876;19;19923;-71
2023/05/30 06:38:33;;;;;;;14.25;5.40;;;21.10;72.40;;;;;;7401050;19;19921;-72
2023/05/30 06:40:58;;;;;;;14.88;5.88;;;21.00;72.90;;;;;;7403820;19;19915;-73
2023/05/30 06:43:24;;;;;;;15.70;6.28;;;21.10;72.90;;;;;;7400623;19;19934;-71
2023/05/30 06:45:50;;;;;;;15.73;6.03;;;21.20;72.90;;;;;;7402287;19;19930;-72
2023/05/30 06:48:15;;;;;;;18.55;6.32;;;21.20;72.50;;;;;;7370563;19;19919;-73
2023/05/30 06:50:41;;;;;;;15.43;5.82;;;21.20;72.40;;;;;;7402543;19;20264;-72
2023/05/30 06:53:07;;;;;;;17.50;6.50;;;21.30;72.40;;;;;;7400875;19;19923;-72
2023/05/30 06:55:33;;;;;;;18.05;7.18;;;21.40;72.40;;;;;;7402151;19;19939;-73
2023/05/30 06:57:58;;;;;;;20.38;6.80;;;21.50;72.00;;;;;;7403032;19;19982;-72
2023/05/30 07:00:24;;;;;;;18.88;7.07;;;21.40;72.10;;;;;;7400755;19;19954;-73
2023/05/30 07:02:50;;;;;;;17.38;6.68;;;21.50;72.20;;;;;;7401881;19;19911;-72
2023/05/30 07:05:16;;;;;;;15.40;6.10;;;21.60;71.80;;;;;;7401860;19;19914;-72
2023/05/30 07:07:43;;;;;;;17.98;6.10;;;21.60;71.00;;;;;;7401235;19;20262;-72
2023/05/30 07:10:09;;;;;;;14.10;5.40;;;21.60;70.30;;;;;;7401822;19;19920;-73
2023/05/30 07:12:35;;;;;;;12.75;5.68;;;21.60;70.20;;;;;;7400721;19;20318;-72
2023/05/30 07:15:02;;;;;;;17.20;6.20;;;21.70;69.90;;;;;;7401227;19;19922;-72
2023/05/30 07:17:28;;;;;;;12.73;5.57;;;21.80;69.40;;;;;;7399864;19;19918;-71
2023/05/30 07:19:54;;;;;;;14.70;5.18;;;21.90;69.20;;;;;;7401161;19;19946;-72
2023/05/30 07:22:19;;;;;;;17.30;5.15;;;22.00;68.40;;;;;;7400489;19;19925;-72
2023/05/30 07:24:45;;;;;;;13.27;4.38;;;22.10;68.60;;;;;;7402100;19;19926;-73
2023/05/30 07:27:11;;;;;;;18.65;5.35;;;22.20;66.80;;;;;;7400328;19;19922;-73
2023/05/30 07:29:37;;;;;;;12.00;4.35;;;22.20;66.00;;;;;;7398877;19;19914;-72
2023/05/30 07:32:03;;;;;;;14.10;5.63;;;22.30;65.60;;;;;;7399137;19;19922;-73
2023/05/30 07:34:29;;;;;;;14.88;5.15;;;22.30;65.60;;;;;;7400240;19;19931;-72
2023/05/30 07:36:55;;;;;;;11.60;4.85;;;22.20;65.20;;;;;;7390915;19;19915;-72
2023/05/30 07:39:21;;;;;;;19.95;5.80;;;22.30;65.40;;;;;;7400811;19;20286;-72
2023/05/30 07:41:47;;;;;;;16.55;5.40;;;22.30;64.80;;;;;;7400095;19;19914;-73
2023/05/30 07:44:13;;;;;;;14.60;5.28;;;22.30;65.00;;;;;;7398825;19;19930;-72
2023/05/30 07:46:38;;;;;;;13.05;5.35;;;22.40;64.90;;;;;;7401182;19;19922;-73
2023/05/30 07:49:04;;;;;;;14.85;5.65;;;22.50;64.90;;;;;;7399458;19;20342;-73
2023/05/30 07:51:31;;;;;;;12.88;5.25;;;22.60;64.60;;;;;;7402951;19;19910;-72
2023/05/30 07:53:57;;;;;;;16.38;5.32;;;22.60;64.40;;;;;;7401880;19;20002;-73
2023/05/30 07:56:22;;;;;;;12.65;5.72;;;22.70;63.80;;;;;;7400059;19;19951;-73
2023/05/30 07:58:48;;;;;;;17.27;6.00;;;23.00;62.70;;;;;;7400428;19;19922;-73
2023/05/30 08:01:14;;;;;;;11.43;5.45;;;23.10;61.50;;;;;;7398547;19;19914;-73
2023/05/30 08:03:40;;;;;;;16.65;5.40;;;23.00;61.40;;;;;;7397706;19;19914;-72
2023/05/30 08:06:07;;;;;;;18.25;5.22;;;23.10;61.80;;;;;;7392040;19;19923;-72
2023/05/30 08:08:32;;;;;;;14.35;5.60;;;23.20;61.60;;;;;;7386330;19;20035;-72
2023/05/30 08:10:58;;;;;;;12.27;5.38;;;23.20;61.20;;;;;;7385571;19;20481;-74
2023/05/30 08:13:27;;;;;;;16.17;5.40;;;23.20;59.90;;;;;;7392117;19;19982;-76
2023/05/30 08:15:52;;;;;;;14.98;5.70;;;23.20;59.60;;;;;;7378563;19;20338;-77
2023/05/30 08:18:18;;;;;;;15.13;5.68;;;23.40;58.60;;;;;;7396016;19;19948;-77
2023/05/30 08:20:45;;;;;;;12.98;5.00;;;23.50;59.20;;;;;;7364456;19;19935;-75
2023/05/30 08:23:11;;;;;;;13.75;5.28;;;23.50;58.60;;;;;;7391003;19;19919;-76
2023/05/30 08:25:42;;;;;;;16.02;5.55;;;23.60;58.80;;;;;;7393788;19;20386;-75
2023/05/30 08:28:10;;;;;;;12.18;4.82;;;23.60;58.50;;;;;;7393791;19;19918;-76
2023/05/30 08:30:37;;;;;;;16.17;5.13;;;23.60;58.30;;;;;;7393969;19;19911;-76
2023/05/30 08:33:04;;;;;;;14.38;5.55;;;23.70;58.20;;;;;;7396669;19;20345;-75
2023/05/30 08:35:30;;;;;;;14.38;5.10;;;23.90;58.00;;;;;;7397362;19;19970;-75
2023/05/30 08:37:58;;;;;;;11.25;4.57;;;23.80;58.10;;;;;;7399235;19;19923;-76
2023/05/30 08:40:26;;;;;;;12.32;5.10;;;23.80;57.90;;;;;;7396045;19;19926;-76
2023/05/30 08:42:52;;;;;;;17.13;5.35;;;23.80;57.50;;;;;;7398283;19;19918;-76
2023/05/30 08:45:19;;;;;;;17.00;4.72;;;23.70;57.90;;;;;;7396397;19;19914;-76
2023/05/30 08:47:46;;;;;;;12.55;4.82;;;23.70;57.70;;;;;;7396296;19;19911;-77
2023/05/30 08:50:13;;;;;;;12.32;5.10;;;23.90;57.50;;;;;;7391488;19;19919;-76
2023/05/30 08:52:42;;;;;;;14.13;4.53;;;24.00;57.50;;;;;;7395953;19;19995;-76
2023/05/30 08:55:16;;;;;;;12.38;4.68;;;24.10;56.60;;;;;;7391867;19;19931;-78
2023/05/30 08:58:04;;;;;;;17.33;4.50;;;23.90;57.00;;;;;;7399316;19;19921;-77
2023/05/30 09:00:32;;;;;;;16.65;4.90;;;23.80;57.10;;;;;;7364112;19;19972;-76
2023/05/30 09:02:58;;;;;;;11.05;4.50;;;24.00;56.90;;;;;;7391275;19;19914;-76
2023/05/30 09:05:26;;;;;;;13.75;4.43;;;24.40;56.90;;;;;;7397204;19;19924;-76
2023/05/30 09:07:55;;;;;;;12.95;4.63;;;24.60;56.40;;;;;;7396667;19;19927;-76
2023/05/30 09:10:22;;;;;;;16.65;5.25;;;24.80;56.20;;;;;;7391464;19;20240;-76
2023/05/30 09:12:47;;;;;;;;;;;24.90;56.30;;;;;;7398602;19;19921;-76
2023/05/30 09:15:13;;;;;;;10.27;4.22;;;24.90;55.10;;;;;;7388064;19;19914;-76
2023/05/30 09:17:39;;;;;;;9.13;4.45;;;24.20;56.50;;;;;;7388558;19;19919;-76
2023/05/30 09:20:08;;;;;;;13.48;5.32;;;24.30;57.20;;;;;;7397331;19;19931;-77
2023/05/30 09:22:33;;;;;;;13.98;4.55;;;24.40;58.80;;;;;;7403773;19;20287;-77
2023/05/30 09:25:03;;;;;;;13.80;4.75;;;24.80;58.20;;;;;;7404704;19;19919;-76
2023/05/30 09:27:33;;;;;;;12.48;5.63;;;24.90;57.60;;;;;;7400070;19;20716;-76
2023/05/30 09:30:06;;;;;;;14.48;5.30;;;24.40;59.10;;;;;;7402851;19;19925;-76
2023/05/30 09:32:34;;;;;;;13.65;5.22;;;24.50;60.40;;;;;;7392189;19;19910;-76
2023/05/30 09:35:09;;;;;;;9.85;4.80;;;24.80;58.80;;;;;;7396633;19;19926;-77
2023/05/30 09:37:40;;;;;;;10.68;4.60;;;25.20;57.70;;;;;;7405239;19;19929;-77
2023/05/30 09:40:12;;;;;;;10.77;4.70;;;25.40;57.10;;;;;;7393379;19;19923;-76
2023/05/30 09:42:50;;;;;;;12.73;5.10;;;25.60;55.20;;;;;;7401002;19;20374;-76
2023/05/30 09:45:26;;;;;;;13.10;4.57;;;25.20;56.50;;;;;;7393738;19;19923;-76
2023/05/30 09:47:52;;;;;;;14.65;5.65;;;25.30;56.60;;;;;;7403904;19;19922;-77
2023/05/30 09:50:23;;;;;;;13.75;4.95;;;25.40;56.50;;;;;;7388904;19;19910;-76
2023/05/30 09:52:51;;;;;;;11.40;4.93;;;25.70;56.70;;;;;;7399658;19;19935;-76
2023/05/30 09:55:19;;;;;;;8.98;4.82;;;26.00;56.00;;;;;;7392132;19;19934;-76
2023/05/30 09:57:49;;;;;;;11.38;5.30;;;26.10;55.30;;;;;;7402859;19;19918;-75
2023/05/30 10:00:23;;;;;;;12.02;5.43;;;25.10;56.50;;;;;;7397076;19;20203;-77
2023/05/30 10:02:55;;;;;;;11.57;4.85;;;25.10;57.00;;;;;;7403035;19;19925;-77
2023/05/30 10:05:26;;;;;;;12.63;5.07;;;25.00;57.10;;;;;;7391476;19;19911;-78
2023/05/30 10:07:55;;;;;;;11.48;4.78;;;25.10;55.80;;;;;;7397955;19;19914;-76
2023/05/30 10:10:21;;;;;;;16.42;4.65;;;25.40;55.80;;;;;;7389016;19;19931;-76
2023/05/30 10:12:52;;;;;;;9.48;4.78;;;25.80;55.60;;;;;;7399890;19;19923;-76
2023/05/30 10:15:19;;;;;;;10.10;4.43;;;25.60;54.70;;;;;;7366541;19;19914;-76
2023/05/30 10:17:50;;;;;;;12.38;4.57;;;25.60;54.80;;;;;;7404208;19;19926;-77
2023/05/30 10:20:18;;;;;;;11.00;4.93;;;25.70;55.20;;;;;;7396555;19;19914;-76
2023/05/30 10:22:46;;;;;;;10.10;4.70;;;25.70;55.00;;;;;;7398007;19;19923;-76
2023/05/30 10:25:13;;;;;;;10.73;5.00;;;25.60;54.30;;;;;;7404860;19;20224;-75
2023/05/30 10:27:46;;;;;;;12.20;4.88;;;25.50;54.50;;;;;;7396955;19;19935;-76
2023/05/30 10:30:13;;;;;;;12.15;5.47;;;25.70;55.00;;;;;;7394173;19;19918;-77
2023/05/30 10:32:53;;;;;;;13.40;4.90;;;25.70;56.40;;;;;;7392796;19;19933;-77
2023/05/30 10:35:23;;;;;;;11.02;5.43;;;25.60;57.00;;;;;;7395137;19;19922;-76
2023/05/30 10:37:50;;;;;;;13.93;5.70;;;25.70;56.60;;;;;;7404239;19;20257;-78
2023/05/30 10:40:38;;;;;;;12.75;5.65;;;25.90;55.70;;;;;;7402916;19;19922;-77
2023/05/30 10:43:45;;;;;;;9.15;5.55;;;25.40;56.10;;;;;;7399905;19;19923;-77
2023/05/30 10:46:18;;;;;;;11.45;5.18;;;25.00;56.70;;;;;;7395442;19;19942;-77
2023/05/30 10:48:47;;;;;;;10.32;5.30;;;25.30;56.60;;;;;;7402487;19;20290;-77
2023/05/30 10:51:13;;;;;;;13.32;6.20;;;25.30;57.10;;;;;;7400852;19;19922;-77
2023/05/30 10:53:47;;;;;;;10.18;5.65;;;25.50;55.80;;;;;;7406195;19;19911;-77
2023/05/30 10:56:27;;;;;;;9.30;5.38;;;25.70;55.90;;;;;;7395547;19;20257;-76
2023/05/30 10:58:53;;;;;;;13.00;5.43;;;26.00;55.20;;;;;;7397990;19;20022;-77
2023/05/30 11:01:30;;;;;;;10.38;5.70;;;26.00;55.30;;;;;;7401340;19;19936;-78
2023/05/30 11:04:00;;;;;;;11.98;5.70;;;25.90;55.00;;;;;;7404185;19;19921;-76
2023/05/30 11:06:27;;;;;;;10.27;6.20;;;25.50;56.00;;;;;;7401359;19;19930;-76
2023/05/30 11:09:03;;;;;;;12.50;6.13;;;25.50;56.10;;;;;;7404110;19;20038;-77
2023/05/30 11:11:54;;;;;;;10.50;5.45;;;25.50;56.10;;;;;;7408514;19;19938;-77
2023/05/30 11:14:35;;;;;;;11.10;6.18;;;25.60;56.10;;;;;;7403791;19;19906;-82
2023/05/30 11:17:06;;;;;;;11.32;5.28;;;25.60;56.40;;;;;;7402895;19;19922;-78
2023/05/30 11:19:40;;;;;;;9.48;6.18;;;26.00;55.90;;;;;;7405487;19;19918;-77
2023/05/30 11:22:17;;;;;;;8.55;5.50;;;26.20;55.40;;;;;;7403654;19;19911;-76
2023/05/30 11:24:43;;;;;;;11.18;5.55;;;26.30;54.20;;;;;;7405560;19;19919;-78
2023/05/30 11:27:17;;;;;;;11.25;5.82;;;26.90;53.70;;;;;;7409323;19;19918;-80
2023/05/30 11:29:51;;;;;;;8.75;5.45;;;26.70;54.10;;;;;;7402972;19;20345;-76
2023/05/30 11:32:19;;;;;;;10.23;6.55;;;26.80;54.50;;;;;;7402854;19;19986;-78
2023/05/30 11:34:46;;;;;;;14.00;6.45;;;27.50;53.20;;;;;;7400823;19;19911;-77
2023/05/30 11:37:12;;;;;;;12.57;6.68;;;27.20;53.10;;;;;;7408163;19;19914;-79
2023/05/30 11:39:37;;;;;;;8.40;5.40;;;27.60;52.70;;;;;;7400354;19;19945;-79
2023/05/30 11:42:05;;;;;;;12.02;6.07;;;28.00;52.40;;;;;;7400102;19;19978;-79
2023/05/30 11:44:32;;;;;;;10.95;6.53;;;27.80;51.80;;;;;;7406097;19;19914;-80
2023/05/30 11:47:04;;;;;;;11.45;6.25;;;27.50;52.40;;;;;;7396275;19;19915;-76
2023/05/30 11:49:36;;;;;;;10.70;7.13;;;28.20;51.30;;;;;;7404198;19;19910;-77
2023/05/30 11:52:05;;;;;;;12.45;7.90;;;28.50;51.00;;;;;;7371473;19;19922;-82
2023/05/30 11:54:31;;;;;;;13.63;7.50;;;28.50;51.00;;;;;;7395105;19;19926;-77
2023/05/30 11:56:57;;;;;;;13.48;7.93;;;27.80;51.40;;;;;;7406184;19;19907;-79
2023/05/30 11:59:26;;;;;;;13.82;8.27;;;28.10;51.50;;;;;;7400834;19;19953;-79
2023/05/30 12:01:57;;;;;;;11.23;8.23;;;28.50;50.70;;;;;;7396544;19;19946;-77
2023/05/30 12:04:26;;;;;;;12.13;7.80;;;28.60;50.30;;;;;;7400433;19;19994;-77
2023/05/30 12:06:56;;;;;;;14.82;6.75;;;28.70;50.00;;;;;;7406680;19;20292;-78
2023/05/30 12:09:22;;;;;;;11.15;8.27;;;28.70;50.40;;;;;;7403484;19;19918;-77
2023/05/30 12:11:53;;;;;;;11.52;8.32;;;28.90;50.20;;;;;;7406811;19;19914;-77
2023/05/30 12:14:19;;;;;;;12.30;8.30;;;28.60;50.90;;;;;;7406033;19;19955;-78
2023/05/30 12:16:44;;;;;;;10.77;7.57;;;28.50;51.30;;;;;;7406100;19;19952;-76
2023/05/30 12:19:11;;;;;;;11.48;7.18;;;28.70;50.50;;;;;;7401833;19;19927;-77
2023/05/30 12:21:36;;;;;;;;;;;29.30;49.90;;;;;;7410324;19;19972;-78
2023/05/30 12:24:13;;;;;;;10.20;6.75;;;28.80;49.60;;;;;;7402602;19;19914;-78
2023/05/30 12:26:47;;;;;;;12.02;7.07;;;29.00;49.80;;;;;;7403599;19;19914;-77
2023/05/30 12:29:13;;;;;;;14.23;7.80;;;29.40;49.60;;;;;;7403363;19;19942;-78
2023/05/30 12:31:38;;;;;;;10.10;6.40;;;29.60;49.50;;;;;;7407499;19;19922;-77
2023/05/30 12:34:04;;;;;;;11.90;8.23;;;29.40;50.00;;;;;;7404907;19;19922;-77
2023/05/30 12:36:30;;;;;;;12.43;8.27;;;28.70;50.00;;;;;;7408410;19;20437;-78
2023/05/30 12:38:57;;;;;;;;;;;28.80;50.40;;;;;;7407375;19;19918;-77
2023/05/30 12:41:30;;;;;;;9.60;6.90;;;29.20;49.80;;;;;;7406395;19;19938;-74
2023/05/30 12:43:57;;;;;;;9.07;7.32;;;29.40;49.50;;;;;;7403109;19;19923;-75